createdAt,value
2018-09-04T00:00:18.782Z,23.91
2018-09-04T00:02:48.531Z,23.88
2018-09-04T00:05:18.200Z,23.56
2018-09-04T00:07:47.988Z,23.43
2018-09-04T00:10:17.944Z,23.30
2018-09-04T00:12:47.713Z,23.30
2018-09-04T00:15:17.538Z,23.42
2018-09-04T00:17:47.292Z,23.43
2018-09-04T00:20:17.200Z,23.38
2018-09-04T00:22:47.079Z,23.50
2018-09-04T00:25:16.927Z,23.48
2018-09-04T00:27:47.055Z,23.53
2018-09-04T00:30:16.842Z,23.17
2018-09-04T00:32:46.444Z,23.27
2018-09-04T00:35:16.264Z,23.42
2018-09-04T00:37:46.148Z,23.40
2018-09-04T00:40:15.936Z,23.46
2018-09-04T00:42:45.698Z,23.54
2018-09-04T00:45:15.732Z,22.76
2018-09-04T00:47:45.525Z,22.96
2018-09-04T00:50:15.438Z,22.84
2018-09-04T00:52:45.310Z,23.15
2018-09-04T00:55:15.197Z,23.25
2018-09-04T00:57:44.878Z,22.86
2018-09-04T01:00:14.747Z,22.59
2018-09-04T01:02:44.589Z,22.63
2018-09-04T01:05:15.011Z,22.69
2018-09-04T01:07:45.414Z,22.50
2018-09-04T01:10:15.941Z,21.55
2018-09-04T01:12:46.688Z,21.67
2018-09-04T01:15:17.298Z,22.10
2018-09-04T01:17:48.117Z,22.60
2018-09-04T01:20:18.554Z,22.88
2018-09-04T01:22:49.426Z,22.54
2018-09-04T01:25:19.646Z,22.71
2018-09-04T01:27:49.986Z,22.46
2018-09-04T01:30:20.332Z,21.87
2018-09-04T01:32:51.275Z,22.23
2018-09-04T01:35:22.095Z,22.60
2018-09-04T01:37:52.878Z,22.74
2018-09-04T01:40:22.792Z,22.72
2018-09-04T01:42:53.516Z,22.52
2018-09-04T01:45:23.267Z,22.39
2018-09-04T01:47:53.083Z,22.18
2018-09-04T01:50:22.758Z,22.71
2018-09-04T01:52:52.505Z,22.30
2018-09-04T01:55:22.371Z,22.34
2018-09-04T01:57:52.115Z,22.60
2018-09-04T02:00:21.881Z,22.86
2018-09-04T02:02:51.629Z,22.41
2018-09-04T02:05:21.464Z,22.24
2018-09-04T02:07:51.347Z,22.55
2018-09-04T02:10:21.179Z,22.43
2018-09-04T02:12:50.951Z,22.49
2018-09-04T02:15:20.772Z,22.75
2018-09-04T02:17:50.590Z,22.42
2018-09-04T02:20:20.410Z,22.53
2018-09-04T02:22:50.238Z,22.57
2018-09-04T02:25:20.078Z,22.66
2018-09-04T02:27:50.390Z,22.65
2018-09-04T02:30:21.474Z,22.79
2018-09-04T02:32:52.281Z,22.87
2018-09-04T02:35:22.869Z,22.91
2018-09-04T02:37:53.415Z,22.64
2018-09-04T02:40:24.181Z,22.79
2018-09-04T02:42:54.535Z,22.58
2018-09-04T02:45:25.388Z,22.83
2018-09-04T02:47:55.792Z,22.69
2018-09-04T02:50:26.442Z,22.16
2018-09-04T02:52:57.256Z,22.28
2018-09-04T02:55:27.907Z,22.04
2018-09-04T02:57:58.549Z,22.07
2018-09-04T03:00:29.323Z,22.50
2018-09-04T03:02:59.627Z,22.90
2018-09-04T03:05:30.266Z,23.06
2018-09-04T03:08:00.418Z,23.12
2018-09-04T03:10:30.999Z,23.31
2018-09-04T03:13:02.031Z,23.38
2018-09-04T03:15:32.753Z,23.43
2018-09-04T03:18:03.248Z,23.07
2018-09-04T03:20:33.892Z,22.30
2018-09-04T03:23:04.848Z,22.87
2018-09-04T03:25:34.981Z,23.16
2018-09-04T03:28:05.363Z,23.22
2018-09-04T03:30:36.366Z,22.74
2018-09-04T03:33:07.033Z,22.94
2018-09-04T03:35:37.249Z,23.07
2018-09-04T03:38:07.561Z,23.04
2018-09-04T03:40:37.965Z,22.99
2018-09-04T03:43:09.077Z,22.78
2018-09-04T03:45:39.518Z,22.74
2018-09-04T03:48:10.640Z,22.93
2018-09-04T03:50:41.489Z,22.72
2018-09-04T03:53:12.695Z,22.71
2018-09-04T03:55:43.340Z,22.89
2018-09-04T03:58:14.170Z,22.60
2018-09-04T04:00:44.807Z,22.66
2018-09-04T04:03:15.287Z,22.77
2018-09-04T04:05:45.832Z,22.74
2018-09-04T04:08:16.523Z,22.34
2018-09-04T04:10:47.040Z,22.59
2018-09-04T04:13:17.883Z,22.71
2018-09-04T04:15:48.293Z,22.97
2018-09-04T04:18:18.699Z,22.93
2018-09-04T04:20:53.416Z,22.75
2018-09-04T04:23:23.992Z,21.89
2018-09-04T04:25:54.929Z,22.60
2018-09-04T04:28:25.994Z,22.71
2018-09-04T04:30:56.590Z,22.79
2018-09-04T04:33:27.726Z,22.88
2018-09-04T04:35:58.519Z,23.00
2018-09-04T04:38:29.167Z,22.88
2018-09-04T04:40:59.914Z,22.85
2018-09-04T04:43:30.859Z,22.92
2018-09-04T04:46:01.253Z,23.03
2018-09-04T04:48:32.025Z,23.12
2018-09-04T04:51:02.469Z,22.40
2018-09-04T04:53:33.773Z,22.51
2018-09-04T04:56:04.207Z,22.93
2018-09-04T04:58:34.723Z,23.00
2018-09-04T05:01:05.502Z,23.04
2018-09-04T05:03:36.289Z,23.08
2018-09-04T05:06:06.967Z,23.30
2018-09-04T05:08:37.653Z,23.52
2018-09-04T05:11:08.082Z,23.28
2018-09-04T05:13:38.610Z,23.48
2018-09-04T05:16:08.945Z,23.62
2018-09-04T05:18:39.487Z,23.22
2018-09-04T05:21:10.424Z,23.14
2018-09-04T05:23:41.269Z,23.14
2018-09-04T05:26:11.811Z,23.20
2018-09-04T05:28:42.298Z,23.50
2018-09-04T05:31:12.970Z,23.58
2018-09-04T05:33:45.940Z,23.96
2018-09-04T05:36:17.397Z,24.05
2018-09-04T05:38:47.813Z,24.28
2018-09-04T05:41:18.234Z,24.42
2018-09-04T05:43:55.725Z,24.49
2018-09-04T05:46:31.027Z,23.91
2018-09-04T05:49:01.840Z,23.83
2018-09-04T05:51:31.539Z,23.69
2018-09-04T05:54:02.073Z,23.95
2018-09-04T05:56:32.033Z,24.20
2018-09-04T05:59:01.742Z,24.99
2018-09-04T06:01:31.678Z,25.44
2018-09-04T06:04:01.437Z,25.46
2018-09-04T06:06:31.383Z,25.24
2018-09-04T06:09:01.435Z,24.69
2018-09-04T06:11:31.298Z,25.08
2018-09-04T06:14:01.146Z,24.49
2018-09-04T06:16:30.880Z,24.74
2018-09-04T06:19:00.688Z,25.67
2018-09-04T06:21:30.624Z,25.77
2018-09-04T06:24:00.540Z,26.29
2018-09-04T06:26:30.395Z,25.50
2018-09-04T06:29:00.408Z,25.64
2018-09-04T06:31:30.565Z,26.24
2018-09-04T06:34:00.313Z,26.51
2018-09-04T06:36:30.278Z,27.03
2018-09-04T06:39:00.039Z,27.04
2018-09-04T06:41:29.773Z,26.12
2018-09-04T06:43:59.556Z,26.78
2018-09-04T06:46:29.408Z,26.80
2018-09-04T06:48:59.191Z,27.46
2018-09-04T06:51:29.095Z,27.45
2018-09-04T06:53:58.975Z,26.65
2018-09-04T06:56:28.675Z,26.66
2018-09-04T06:58:58.401Z,26.80
2018-09-04T07:01:28.175Z,27.42
2018-09-04T07:03:57.910Z,28.48
2018-09-04T07:06:27.537Z,27.53
2018-09-04T07:08:57.387Z,27.38
2018-09-04T07:11:27.078Z,28.30
2018-09-04T07:13:56.825Z,28.18
2018-09-04T07:16:26.598Z,28.97
2018-09-04T07:18:56.389Z,28.66
2018-09-04T07:21:26.059Z,29.28
2018-09-04T07:23:55.646Z,28.65
2018-09-04T07:26:25.838Z,30.25
2018-09-04T07:28:55.455Z,30.53
2018-09-04T07:31:25.965Z,30.71
2018-09-04T07:33:56.578Z,30.04
2018-09-04T07:36:27.185Z,31.02
2018-09-04T07:38:57.859Z,31.76
2018-09-04T07:41:28.618Z,31.19
2018-09-04T07:44:00.131Z,31.69
2018-09-04T07:46:30.599Z,31.20
2018-09-04T07:49:01.114Z,31.92
2018-09-04T07:51:31.862Z,31.98
2018-09-04T07:54:02.999Z,31.41
2018-09-04T07:56:33.563Z,31.51
2018-09-04T07:59:03.878Z,32.32
2018-09-04T08:01:34.135Z,33.09
2018-09-04T08:04:06.414Z,33.32
2018-09-04T08:06:37.102Z,34.13
2018-09-04T08:09:08.995Z,33.46
2018-09-04T08:11:39.616Z,33.08
2018-09-04T08:14:10.799Z,32.79
2018-09-04T08:16:42.065Z,32.46
2018-09-04T08:19:12.925Z,33.39
2018-09-04T08:21:43.459Z,32.32
2018-09-04T08:24:14.241Z,32.92
2018-09-04T08:26:44.570Z,34.47
2018-09-04T08:29:15.219Z,33.84
2018-09-04T08:31:46.128Z,33.13
2018-09-04T08:34:17.889Z,33.54
2018-09-04T08:36:48.436Z,34.04
2018-09-04T08:39:19.098Z,33.85
2018-09-04T08:41:49.659Z,34.48
2018-09-04T08:44:20.386Z,34.39
2018-09-04T08:46:51.260Z,34.42
2018-09-04T08:49:21.690Z,34.55
2018-09-04T08:51:51.992Z,33.81
2018-09-04T08:54:23.680Z,33.57
2018-09-04T08:56:54.118Z,33.52
2018-09-04T08:59:24.793Z,34.19
2018-09-04T09:01:55.424Z,35.24
2018-09-04T09:04:26.458Z,35.67
2018-09-04T09:06:57.259Z,35.39
2018-09-04T09:09:27.557Z,34.55
2018-09-04T09:11:57.950Z,33.96
2018-09-04T09:14:28.814Z,34.18
2018-09-04T09:16:59.347Z,35.09
2018-09-04T09:19:29.842Z,35.32
2018-09-04T09:22:00.223Z,35.58
2018-09-04T09:24:31.579Z,36.36
2018-09-04T09:27:02.171Z,37.27
2018-09-04T09:29:33.044Z,37.63
2018-09-04T09:32:03.632Z,36.35
2018-09-04T09:34:34.746Z,36.16
2018-09-04T09:37:05.516Z,35.58
2018-09-04T09:39:36.138Z,35.11
2018-09-04T09:42:06.526Z,33.38
2018-09-04T09:44:38.123Z,33.45
2018-09-04T09:47:08.488Z,34.04
2018-09-04T09:49:39.206Z,34.13
2018-09-04T09:52:09.850Z,34.23
2018-09-04T09:54:41.204Z,33.62
2018-09-04T09:57:11.136Z,33.88
2018-09-04T09:59:40.964Z,33.95
2018-09-04T10:02:15.675Z,34.42
2018-09-04T10:04:46.322Z,33.94
2018-09-04T10:07:16.321Z,33.53
2018-09-04T10:09:46.274Z,33.12
2018-09-04T10:12:16.057Z,33.08
2018-09-04T10:14:47.112Z,32.89
2018-09-04T10:17:16.978Z,33.60
2018-09-04T10:19:46.799Z,33.48
2018-09-04T10:22:16.544Z,34.48
2018-09-04T10:24:47.140Z,35.42
2018-09-04T10:27:16.975Z,34.76
2018-09-04T10:29:46.888Z,34.53
2018-09-04T10:32:16.798Z,33.79
2018-09-04T10:34:47.133Z,34.20
2018-09-04T10:37:17.059Z,35.99
2018-09-04T10:39:51.836Z,35.32
2018-09-04T10:42:26.562Z,36.74
2018-09-04T10:44:57.094Z,37.06
2018-09-04T10:47:26.885Z,38.32
2018-09-04T10:49:57.015Z,37.12
2018-09-04T10:52:26.855Z,37.29
2018-09-04T10:54:57.759Z,37.19
2018-09-04T10:57:27.400Z,36.06
2018-09-04T10:59:57.157Z,36.11
2018-09-04T11:02:26.997Z,36.10
2018-09-04T11:04:57.586Z,35.61
2018-09-04T11:07:27.462Z,36.07
2018-09-04T11:09:57.448Z,36.64
2018-09-04T11:12:27.427Z,37.31
2018-09-04T11:14:57.308Z,38.21
2018-09-04T11:17:27.126Z,37.98
2018-09-04T11:19:56.927Z,38.65
2018-09-04T11:22:26.784Z,35.82
2018-09-04T11:24:56.834Z,36.07
2018-09-04T11:27:26.638Z,37.32
2018-09-04T11:29:56.397Z,37.98
2018-09-04T11:32:26.384Z,38.18
2018-09-04T11:34:56.512Z,36.62
2018-09-04T11:37:26.439Z,36.07
2018-09-04T11:39:56.367Z,35.85
2018-09-04T11:42:26.227Z,35.97
2018-09-04T11:44:56.096Z,35.94
2018-09-04T11:47:25.815Z,36.46
2018-09-04T11:49:55.538Z,36.90
2018-09-04T11:52:25.398Z,36.64
2018-09-04T11:54:55.358Z,37.21
2018-09-04T11:57:25.348Z,36.82
2018-09-04T11:59:55.329Z,36.90
2018-09-04T12:02:27.319Z,36.11
2018-09-04T12:04:58.224Z,36.09
2018-09-04T12:07:27.969Z,35.72
2018-09-04T12:09:57.843Z,36.58
2018-09-04T12:12:30.950Z,37.48
2018-09-04T12:15:01.537Z,36.43
2018-09-04T12:17:31.307Z,36.70
2018-09-04T12:21:08.272Z,36.82
2018-09-04T12:23:38.074Z,37.53
2018-09-04T12:26:09.905Z,37.46
2018-09-04T12:28:39.921Z,37.16
2018-09-04T12:31:10.283Z,37.53
2018-09-04T12:33:41.146Z,37.02
2018-09-04T12:36:11.252Z,36.62
2018-09-04T12:38:43.101Z,37.44
2018-09-04T12:41:17.173Z,36.22
2018-09-04T12:43:47.417Z,35.21
2018-09-04T12:46:17.307Z,35.68
2018-09-04T12:48:53.284Z,36.59
2018-09-04T12:51:23.020Z,36.17
2018-09-04T12:53:53.808Z,35.94
2018-09-04T12:56:23.683Z,35.23
2018-09-04T12:58:53.474Z,34.45
2018-09-04T13:01:23.290Z,34.52
2018-09-04T13:03:53.293Z,35.97
2018-09-04T13:06:23.217Z,35.85
2018-09-04T13:08:53.189Z,35.85
2018-09-04T13:11:22.949Z,34.56
2018-09-04T13:13:53.032Z,34.29
2018-09-04T13:16:22.827Z,34.88
2018-09-04T13:18:52.800Z,35.61
2018-09-04T13:21:22.843Z,35.92
2018-09-04T13:23:52.790Z,35.27
2018-09-04T13:26:22.679Z,34.81
2018-09-04T13:28:52.510Z,34.95
2018-09-04T13:31:22.379Z,35.00
2018-09-04T13:33:52.213Z,34.97
2018-09-04T13:36:22.573Z,34.33
2018-09-04T13:38:52.413Z,34.71
2018-09-04T13:41:22.227Z,35.27
2018-09-04T13:43:52.061Z,35.42
2018-09-04T13:46:21.920Z,35.26
2018-09-04T13:48:51.744Z,35.74
2018-09-04T13:51:21.529Z,35.17
2018-09-04T13:53:51.226Z,34.69
2018-09-04T13:56:21.048Z,35.19
2018-09-04T13:58:50.794Z,35.13
2018-09-04T14:01:20.623Z,34.83
2018-09-04T14:03:50.403Z,34.98
2018-09-04T14:06:20.200Z,35.22
2018-09-04T14:08:50.128Z,34.87
2018-09-04T14:11:20.042Z,34.52
2018-09-04T14:13:49.789Z,34.76
2018-09-04T14:16:21.744Z,35.23
2018-09-04T14:18:51.533Z,34.03
2018-09-04T14:21:21.409Z,33.90
2018-09-04T14:23:51.904Z,33.77
2018-09-04T14:26:21.495Z,33.97
2018-09-04T14:29:06.418Z,34.12
2018-09-04T14:31:22.608Z,33.82
2018-09-04T14:33:53.218Z,33.91
2018-09-04T14:36:24.008Z,34.04
2018-09-04T14:38:54.330Z,33.74
2018-09-04T14:41:25.131Z,33.36
2018-09-04T14:43:56.052Z,32.28
2018-09-04T14:46:26.611Z,31.37
2018-09-04T14:48:57.153Z,31.75
2018-09-04T14:51:27.977Z,30.99
2018-09-04T14:53:58.510Z,32.19
2018-09-04T14:56:28.278Z,31.50
2018-09-04T14:58:58.807Z,31.62
2018-09-04T15:01:28.827Z,31.78
2018-09-04T15:03:58.882Z,31.42
2018-09-04T15:06:28.667Z,31.14
2018-09-04T15:08:58.605Z,31.55
2018-09-04T15:11:28.460Z,31.50
2018-09-04T15:13:58.272Z,30.85
2018-09-04T15:16:28.123Z,31.28
2018-09-04T15:18:58.066Z,30.70
2018-09-04T15:21:27.901Z,31.38
2018-09-04T15:23:57.617Z,30.47
2018-09-04T15:26:27.344Z,30.73
2018-09-04T15:28:57.247Z,30.03
2018-09-04T15:31:27.056Z,30.00
2018-09-04T15:33:56.856Z,30.00
2018-09-04T15:36:26.591Z,29.96
2018-09-04T15:38:57.016Z,29.82
2018-09-04T15:41:27.032Z,29.66
2018-09-04T15:43:56.820Z,29.70
2018-09-04T15:46:26.600Z,29.61
2018-09-04T15:49:01.286Z,29.36
2018-09-04T15:51:31.186Z,29.06
2018-09-04T15:54:02.163Z,29.12
2018-09-04T15:56:31.999Z,29.17
2018-09-04T15:59:01.732Z,28.83
2018-09-04T16:01:31.400Z,29.04
2018-09-04T16:04:02.443Z,28.76
2018-09-04T16:06:32.186Z,28.60
2018-09-04T16:09:02.172Z,28.78
2018-09-04T16:11:31.963Z,28.46
2018-09-04T16:14:02.426Z,28.58
2018-09-04T16:17:56.382Z,28.38
2018-09-04T16:20:26.108Z,28.44
2018-09-04T16:22:56.020Z,28.39
2018-09-04T16:25:25.809Z,28.01
2018-09-04T16:27:55.435Z,28.00
2018-09-04T16:30:25.182Z,28.27
2018-09-04T16:32:55.044Z,28.20
2018-09-04T16:35:24.858Z,27.82
2018-09-04T16:37:54.573Z,27.91
2018-09-04T16:40:24.526Z,27.96
2018-09-04T16:42:54.388Z,27.53
2018-09-04T16:45:24.147Z,27.67
2018-09-04T16:47:54.631Z,27.56
2018-09-04T16:50:25.199Z,27.73
2018-09-04T16:52:56.580Z,27.67
2018-09-04T16:55:27.140Z,27.52
2018-09-04T16:57:57.997Z,27.37
2018-09-04T17:00:28.367Z,27.25
2018-09-04T17:02:59.314Z,27.36
2018-09-04T17:05:30.031Z,27.32
2018-09-04T17:08:00.824Z,27.16
2018-09-04T17:10:31.586Z,27.07
2018-09-04T17:13:03.007Z,27.28
2018-09-04T17:15:33.633Z,27.25
2018-09-04T17:18:03.802Z,27.38
2018-09-04T17:20:34.392Z,26.99
2018-09-04T17:23:05.487Z,27.15
2018-09-04T17:25:35.713Z,27.16
2018-09-04T17:28:06.252Z,27.34
2018-09-04T17:30:36.568Z,26.88
2018-09-04T17:33:07.478Z,26.93
2018-09-04T17:35:37.816Z,27.04
2018-09-04T17:38:08.383Z,27.22
2018-09-04T17:40:38.705Z,27.14
2018-09-04T17:43:10.616Z,27.04
2018-09-04T17:45:41.332Z,27.14
2018-09-04T17:48:11.757Z,27.30
2018-09-04T17:50:42.404Z,26.79
2018-09-04T17:53:13.321Z,26.70
2018-09-04T17:55:43.973Z,27.08
2018-09-04T17:58:14.507Z,27.25
2018-09-04T18:00:44.986Z,27.26
2018-09-04T18:03:15.352Z,27.21
2018-09-04T18:05:45.697Z,27.07
2018-09-04T18:08:16.002Z,27.08
2018-09-04T18:10:46.414Z,27.15
2018-09-04T18:13:17.325Z,27.11
2018-09-04T18:15:47.871Z,27.30
2018-09-04T18:18:18.375Z,26.51
2018-09-04T18:20:48.787Z,26.76
2018-09-04T18:23:20.158Z,26.78
2018-09-04T18:25:51.162Z,26.75
2018-09-04T18:28:21.852Z,26.87
2018-09-04T18:30:51.881Z,27.01
2018-09-04T18:33:22.631Z,26.96
2018-09-04T18:35:52.522Z,27.05
2018-09-04T18:38:22.381Z,27.07
2018-09-04T18:40:52.416Z,27.02
2018-09-04T18:43:23.330Z,26.63
2018-09-04T18:45:55.145Z,26.79
2018-09-04T18:48:26.303Z,26.94
2018-09-04T18:50:56.100Z,26.94
2018-09-04T18:53:27.121Z,26.96
2018-09-04T18:55:56.810Z,26.68
2018-09-04T18:58:26.665Z,26.49
2018-09-04T19:00:56.421Z,26.59
2018-09-04T19:03:27.888Z,26.60
2018-09-04T19:05:58.275Z,26.65
2018-09-04T19:08:29.191Z,26.39
2018-09-04T19:10:59.630Z,25.90
2018-09-04T19:13:30.411Z,25.52
2018-09-04T19:16:00.306Z,25.18
2018-09-04T19:18:30.053Z,25.33
2018-09-04T19:20:59.822Z,25.70
2018-09-04T19:23:30.311Z,25.97
2018-09-04T19:26:00.054Z,25.49
2018-09-04T19:28:29.835Z,25.02
2018-09-04T19:30:59.753Z,24.66
2018-09-04T19:33:29.964Z,25.03
2018-09-04T19:36:00.107Z,25.29
2018-09-04T19:38:30.612Z,25.58
2018-09-04T19:41:01.386Z,25.43
2018-09-04T19:43:32.989Z,25.62
2018-09-04T19:46:03.499Z,25.56
2018-09-04T19:48:34.167Z,24.96
2018-09-04T19:51:04.476Z,25.18
2018-09-04T19:53:35.420Z,25.49
2018-09-04T19:56:06.302Z,25.40
2018-09-04T19:58:36.909Z,25.49
2018-09-04T20:01:07.433Z,24.03
2018-09-04T20:03:38.882Z,25.59
2018-09-04T20:06:09.427Z,25.60
2018-09-04T20:08:39.869Z,25.47
2018-09-04T20:11:10.523Z,24.84
2018-09-04T20:13:41.609Z,24.50
2018-09-04T20:16:11.307Z,24.93
2018-09-04T20:18:41.103Z,25.14
2018-09-04T20:21:10.826Z,24.52
2018-09-04T20:23:41.368Z,24.40
2018-09-04T20:26:11.222Z,23.94
2018-09-04T20:28:41.174Z,23.90
2018-09-04T20:31:10.970Z,24.50
2018-09-04T20:33:41.343Z,24.76
2018-09-04T20:36:11.039Z,24.72
2018-09-04T20:38:41.648Z,24.52
2018-09-04T20:41:12.775Z,23.85
2018-09-04T20:43:43.195Z,23.56
2018-09-04T20:46:13.754Z,23.76
2018-09-04T20:48:44.298Z,23.17
2018-09-04T20:51:14.891Z,23.09
2018-09-04T20:53:45.880Z,22.83
2018-09-04T20:56:16.285Z,22.61
2018-09-04T20:58:57.517Z,22.58
2018-09-04T21:01:38.511Z,22.54
2018-09-04T21:04:19.186Z,22.55
2018-09-04T21:06:47.905Z,22.59
2018-09-04T21:09:54.001Z,22.51
2018-09-04T21:12:24.366Z,23.08
2018-09-04T21:14:54.582Z,23.41
2018-09-04T21:17:25.211Z,23.71
2018-09-04T21:19:55.514Z,23.49
2018-09-04T21:22:26.345Z,23.65
2018-09-04T21:24:56.615Z,22.96
2018-09-04T21:27:26.370Z,23.03
2018-09-04T21:29:56.342Z,22.59
2018-09-04T21:32:26.993Z,22.66
2018-09-04T21:34:56.786Z,22.73
2018-09-04T21:37:26.542Z,22.99
2018-09-04T21:39:56.264Z,23.29
2018-09-04T21:42:26.572Z,23.43
2018-09-04T21:44:56.491Z,23.49
2018-09-04T21:47:26.337Z,23.35
2018-09-04T21:49:56.795Z,23.13
2018-09-04T21:52:27.459Z,23.07
2018-09-04T21:54:57.978Z,23.28
2018-09-04T21:57:28.731Z,23.20
2018-09-04T21:59:59.171Z,23.40
2018-09-04T22:02:30.019Z,23.47
2018-09-04T22:05:00.344Z,23.51
2018-09-04T22:07:30.969Z,23.55
2018-09-04T22:10:01.506Z,23.54
2018-09-04T22:12:33.061Z,21.68
2018-09-04T22:15:03.652Z,23.47
2018-09-04T22:17:34.481Z,23.57
2018-09-04T22:20:05.069Z,23.48
2018-09-04T22:22:36.169Z,23.52
2018-09-04T22:25:06.394Z,23.49
2018-09-04T22:27:37.117Z,23.38
2018-09-04T22:30:07.776Z,22.71
2018-09-04T22:32:39.103Z,22.84
2018-09-04T22:35:09.409Z,23.17
2018-09-04T22:37:39.656Z,23.15
2018-09-04T22:40:10.262Z,22.78
2018-09-04T22:42:42.539Z,22.87
2018-09-04T22:45:12.853Z,22.97
2018-09-04T22:47:43.380Z,23.29
2018-09-04T22:50:18.647Z,23.38
2018-09-04T22:52:49.116Z,23.39
2018-09-04T22:55:19.433Z,23.27
2018-09-04T22:57:49.949Z,23.55
2018-09-04T23:00:20.235Z,23.57
2018-09-04T23:02:50.978Z,23.60
2018-09-04T23:05:21.593Z,23.46
2018-09-04T23:07:52.150Z,23.45
2018-09-04T23:10:22.755Z,23.53
2018-09-04T23:12:53.934Z,23.43
2018-09-04T23:15:24.272Z,23.03
2018-09-04T23:17:54.638Z,23.14
2018-09-04T23:20:25.136Z,23.16
2018-09-04T23:22:56.479Z,23.25
2018-09-04T23:25:26.595Z,23.03
2018-09-04T23:27:56.881Z,23.10
2018-09-04T23:30:27.435Z,23.04
2018-09-04T23:32:58.724Z,23.06
2018-09-04T23:35:29.047Z,22.86
2018-09-04T23:37:59.525Z,21.83
2018-09-04T23:40:29.967Z,21.25
2018-09-04T23:43:01.570Z,20.91
2018-09-04T23:45:32.168Z,20.70
2018-09-04T23:48:03.034Z,20.59
2018-09-04T23:50:34.004Z,20.64
2018-09-04T23:53:05.342Z,20.80
2018-09-04T23:55:35.983Z,20.90
2018-09-04T23:58:06.691Z,21.37
